createdAt,value
2023-09-27T00:01:00.568Z,16.35
2023-09-27T00:03:27.156Z,16.67
2023-09-27T00:05:53.914Z,16.58
2023-09-27T00:08:20.804Z,16.15
2023-09-27T00:10:47.500Z,14.80
2023-09-27T00:13:14.091Z,16.33
2023-09-27T00:15:41.354Z,14.68
2023-09-27T00:18:10.777Z,14.93
2023-09-27T00:20:37.516Z,17.70
2023-09-27T00:23:04.702Z,16.83
2023-09-27T00:25:31.512Z,14.45
2023-09-27T00:27:58.143Z,17.25
2023-09-27T00:30:24.708Z,15.40
2023-09-27T00:32:51.573Z,15.35
2023-09-27T00:35:23.167Z,17.23
2023-09-27T00:37:51.549Z,17.10
2023-09-27T00:40:22.281Z,18.33
2023-09-27T00:42:49.471Z,16.20
2023-09-27T00:45:16.894Z,17.70
2023-09-27T00:47:43.964Z,18.33
2023-09-27T00:52:40.818Z,15.32
2023-09-27T00:55:12.152Z,16.27
2023-09-27T00:57:39.626Z,15.30
2023-09-27T01:00:11.132Z,17.63
2023-09-27T01:02:39.741Z,16.50
2023-09-27T01:05:09.860Z,17.63
2023-09-27T01:07:38.431Z,17.50
2023-09-27T01:10:08.280Z,16.92
2023-09-27T01:12:35.359Z,17.35
2023-09-27T01:15:02.632Z,16.02
2023-09-27T01:17:29.388Z,15.10
2023-09-27T01:19:56.136Z,16.35
2023-09-27T01:22:22.985Z,17.95
2023-09-27T01:24:52.635Z,16.17
2023-09-27T01:27:21.149Z,17.40
2023-09-27T01:29:47.781Z,15.82
2023-09-27T01:32:14.479Z,16.73
2023-09-27T01:34:43.190Z,15.82
2023-09-27T01:37:10.362Z,20.33
2023-09-27T01:42:03.580Z,18.00
2023-09-27T01:44:30.212Z,18.15
2023-09-27T01:46:56.833Z,19.92
2023-09-27T01:49:23.544Z,19.38
2023-09-27T01:51:50.453Z,19.00
2023-09-27T01:54:17.130Z,16.10
2023-09-27T01:56:43.802Z,17.85
2023-09-27T01:59:10.723Z,19.10
2023-09-27T02:01:37.526Z,18.40
2023-09-27T02:04:05.370Z,18.90
2023-09-27T02:06:32.381Z,18.20
2023-09-27T02:11:26.807Z,19.42
2023-09-27T02:13:53.942Z,18.73
2023-09-27T02:16:20.940Z,21.23
2023-09-27T02:18:47.733Z,19.00
2023-09-27T02:21:14.535Z,20.42
2023-09-27T02:23:41.821Z,21.92
2023-09-27T02:26:08.652Z,19.13
2023-09-27T02:28:35.252Z,23.27
2023-09-27T02:33:30.883Z,21.55
2023-09-27T02:35:57.754Z,23.30
2023-09-27T02:38:24.362Z,23.85
2023-09-27T02:40:51.027Z,21.92
2023-09-27T02:43:17.651Z,23.50
2023-09-27T02:45:44.383Z,26.60
2023-09-27T02:48:11.053Z,26.73
2023-09-27T02:50:37.948Z,25.75
2023-09-27T02:53:05.515Z,24.33
2023-09-27T02:55:33.823Z,25.98
2023-09-27T02:58:00.558Z,21.90
2023-09-27T03:00:27.745Z,25.67
2023-09-27T03:02:54.493Z,25.75
2023-09-27T03:05:21.489Z,25.65
2023-09-27T03:07:49.556Z,23.25
2023-09-27T03:10:17.271Z,23.55
2023-09-27T03:12:47.052Z,22.73
2023-09-27T03:15:14.339Z,25.20
2023-09-27T03:17:43.832Z,25.75
2023-09-27T03:20:17.619Z,24.63
2023-09-27T03:22:44.968Z,24.75
2023-09-27T03:25:11.600Z,22.95
2023-09-27T03:27:38.881Z,21.88
2023-09-27T03:30:07.162Z,21.25
2023-09-27T03:32:36.878Z,24.33
2023-09-27T03:35:04.538Z,20.15
2023-09-27T03:37:31.674Z,21.58
2023-09-27T03:39:58.458Z,22.90
2023-09-27T03:42:25.243Z,22.95
2023-09-27T03:44:52.183Z,22.05
2023-09-27T03:47:18.973Z,20.00
2023-09-27T03:49:45.647Z,18.10
2023-09-27T03:52:12.601Z,20.30
2023-09-27T03:54:39.224Z,17.90
2023-09-27T03:57:05.876Z,18.75
2023-09-27T03:59:32.692Z,20.48
2023-09-27T04:02:00.569Z,21.92
2023-09-27T04:04:28.464Z,20.20
2023-09-27T04:06:55.122Z,20.75
2023-09-27T04:11:48.862Z,20.08
2023-09-27T04:14:15.463Z,22.08
2023-09-27T04:16:42.145Z,21.13
2023-09-27T04:19:09.416Z,21.30
2023-09-27T04:21:37.613Z,21.35
2023-09-27T04:24:05.477Z,18.27
2023-09-27T04:26:32.117Z,21.30
2023-09-27T04:28:58.896Z,21.48
2023-09-27T04:31:25.530Z,19.88
2023-09-27T04:33:52.565Z,20.30
2023-09-27T04:36:19.442Z,18.02
2023-09-27T04:38:47.327Z,22.85
2023-09-27T04:41:17.869Z,21.63
2023-09-27T04:43:45.757Z,22.73
2023-09-27T04:46:14.863Z,21.02
2023-09-27T04:48:41.712Z,21.08
2023-09-27T04:51:08.356Z,23.88
2023-09-27T04:53:38.353Z,19.60
2023-09-27T04:56:06.558Z,22.30
2023-09-27T04:58:33.810Z,19.90
2023-09-27T05:03:27.995Z,22.08
2023-09-27T05:05:54.680Z,20.30
2023-09-27T05:08:21.215Z,21.50
2023-09-27T05:10:47.910Z,22.25
2023-09-27T05:13:14.574Z,18.27
2023-09-27T05:15:41.759Z,17.10
2023-09-27T05:18:08.459Z,20.23
2023-09-27T05:20:36.784Z,18.65
2023-09-27T05:23:04.034Z,20.70
2023-09-27T05:27:58.196Z,23.80
2023-09-27T05:30:25.145Z,20.55
2023-09-27T05:32:52.032Z,22.27
2023-09-27T05:35:18.765Z,19.60
2023-09-27T05:37:46.045Z,21.98
2023-09-27T05:40:13.101Z,23.15
2023-09-27T05:42:40.187Z,20.13
2023-09-27T05:47:34.457Z,19.33
2023-09-27T05:50:01.191Z,20.42
2023-09-27T05:52:28.531Z,20.30
2023-09-27T05:54:56.100Z,21.77
2023-09-27T05:57:23.602Z,22.08
2023-09-27T05:59:50.441Z,21.02
2023-09-27T06:02:21.491Z,23.33
2023-09-27T06:04:48.587Z,21.23
2023-09-27T06:07:16.660Z,22.27
2023-09-27T06:09:44.153Z,23.00
2023-09-27T06:12:11.659Z,19.38
2023-09-27T06:14:39.136Z,19.85
2023-09-27T06:17:07.160Z,19.55
2023-09-27T06:19:34.448Z,22.15
2023-09-27T06:24:28.786Z,21.05
2023-09-27T06:26:55.577Z,21.48
2023-09-27T06:29:22.213Z,20.35
2023-09-27T06:31:53.371Z,22.05
2023-09-27T06:34:20.111Z,22.27
2023-09-27T06:36:50.465Z,24.10
2023-09-27T06:39:18.034Z,20.77
2023-09-27T06:41:47.307Z,22.27
2023-09-27T06:44:15.205Z,21.05
2023-09-27T06:46:48.616Z,22.70
2023-09-27T06:49:17.810Z,23.33
2023-09-27T06:51:44.690Z,24.27
2023-09-27T06:54:11.568Z,26.20
2023-09-27T06:56:38.298Z,22.73
2023-09-27T06:59:06.277Z,23.45
2023-09-27T07:01:33.012Z,28.38
2023-09-27T07:03:59.733Z,30.30
2023-09-27T07:06:26.391Z,23.85
2023-09-27T07:08:54.479Z,26.08
2023-09-27T07:11:22.627Z,24.10
2023-09-27T07:13:49.260Z,23.58
2023-09-27T07:16:27.145Z,23.33
2023-09-27T07:18:54.864Z,28.35
2023-09-27T07:21:21.610Z,25.63
2023-09-27T07:23:50.615Z,28.80
2023-09-27T07:26:17.582Z,24.48
2023-09-27T07:28:45.064Z,25.70
2023-09-27T07:31:16.261Z,29.17
2023-09-27T07:33:46.103Z,28.25
2023-09-27T07:36:14.233Z,25.77
2023-09-27T07:38:41.290Z,27.10
2023-09-27T07:43:37.501Z,30.58
2023-09-27T07:46:07.869Z,25.60
2023-09-27T07:48:39.148Z,29.80
2023-09-27T07:51:18.424Z,23.05
2023-09-27T07:53:46.153Z,23.50
2023-09-27T07:56:24.908Z,26.15
2023-09-27T07:58:54.460Z,26.08
2023-09-27T08:01:22.375Z,27.58
2023-09-27T08:03:50.509Z,24.85
2023-09-27T08:06:18.150Z,25.85
2023-09-27T08:08:45.202Z,22.20
2023-09-27T08:13:39.921Z,26.27
2023-09-27T08:16:08.821Z,26.27
2023-09-27T08:18:36.154Z,23.65
2023-09-27T08:21:02.858Z,28.27
2023-09-27T08:23:29.524Z,22.90
2023-09-27T08:25:56.873Z,26.40
2023-09-27T08:28:24.216Z,23.67
2023-09-27T08:30:51.067Z,21.00
2023-09-27T08:33:17.784Z,22.25
2023-09-27T08:35:44.595Z,32.83
2023-09-27T08:38:11.896Z,21.05
2023-09-27T08:40:39.003Z,22.63
2023-09-27T08:43:06.410Z,22.15
2023-09-27T08:45:38.180Z,21.05
2023-09-27T08:48:06.195Z,18.98
2023-09-27T08:50:35.011Z,19.48
2023-09-27T08:53:01.648Z,17.23
2023-09-27T08:55:28.681Z,21.98
2023-09-27T09:00:28.557Z,17.48
2023-09-27T09:03:00.765Z,19.38
2023-09-27T09:05:30.036Z,18.98
2023-09-27T09:08:00.336Z,18.55
2023-09-27T09:10:27.091Z,21.42
2023-09-27T09:12:54.222Z,17.73
2023-09-27T09:15:41.582Z,16.80
2023-09-27T09:18:16.016Z,15.95
2023-09-27T09:20:58.426Z,12.43
2023-09-27T09:23:30.403Z,15.32
2023-09-27T09:25:58.168Z,17.35
2023-09-27T09:28:26.032Z,14.18
2023-09-27T09:30:53.099Z,11.77
2023-09-27T09:35:53.341Z,15.60
2023-09-27T09:38:27.411Z,12.63
2023-09-27T09:40:55.932Z,9.05
2023-09-27T09:43:32.282Z,10.48
2023-09-27T09:45:59.088Z,12.07
2023-09-27T09:48:25.953Z,13.52
2023-09-27T09:50:52.732Z,12.18
2023-09-27T09:53:20.762Z,11.30
2023-09-27T09:56:13.429Z,12.52
2023-09-27T09:58:48.236Z,11.45
2023-09-27T10:01:23.212Z,9.20
2023-09-27T10:03:53.315Z,12.13
2023-09-27T10:06:32.543Z,9.93
2023-09-27T10:09:06.482Z,8.60
2023-09-27T10:11:35.199Z,7.53
2023-09-27T10:14:04.098Z,8.60
2023-09-27T10:16:31.677Z,11.00
2023-09-27T10:18:58.679Z,11.10
2023-09-27T10:23:53.991Z,7.35
2023-09-27T10:26:30.170Z,10.52
2023-09-27T10:29:04.524Z,7.60
2023-09-27T10:31:37.783Z,9.45
2023-09-27T10:34:30.438Z,7.95
2023-09-27T10:37:15.258Z,8.18
2023-09-27T10:40:22.184Z,6.03
2023-09-27T10:42:49.767Z,10.18
2023-09-27T10:45:17.817Z,12.77
2023-09-27T10:47:45.028Z,7.07
2023-09-27T10:50:12.149Z,8.95
2023-09-27T10:52:40.541Z,11.18
2023-09-27T10:55:12.089Z,7.60
2023-09-27T10:57:41.875Z,8.77
2023-09-27T11:00:12.418Z,8.52
2023-09-27T11:02:39.626Z,11.25
2023-09-27T11:05:07.935Z,17.88
2023-09-27T11:07:47.014Z,9.43
2023-09-27T11:10:18.859Z,12.40
2023-09-27T11:12:45.926Z,10.77
2023-09-27T11:15:12.747Z,11.38
2023-09-27T11:17:39.418Z,14.55
2023-09-27T11:20:13.124Z,12.48
2023-09-27T11:22:39.804Z,10.55
2023-09-27T11:25:26.779Z,8.07
2023-09-27T11:27:53.491Z,10.90
2023-09-27T11:30:29.514Z,13.15
2023-09-27T11:32:56.290Z,14.52
2023-09-27T11:35:26.548Z,11.60
2023-09-27T11:38:11.042Z,9.48
2023-09-27T11:40:39.447Z,12.95
2023-09-27T11:43:06.570Z,11.85
2023-09-27T11:45:48.037Z,7.43
2023-09-27T11:48:15.996Z,11.73
2023-09-27T11:50:43.413Z,12.27
2023-09-27T11:53:10.362Z,9.15
2023-09-27T11:55:37.028Z,7.95
2023-09-27T11:58:03.852Z,9.52
2023-09-27T12:00:30.551Z,9.52
2023-09-27T12:02:58.929Z,8.23
2023-09-27T12:05:27.180Z,10.00
2023-09-27T12:07:54.328Z,10.77
2023-09-27T12:10:21.146Z,7.93
2023-09-27T12:12:49.476Z,10.38
2023-09-27T12:15:16.205Z,12.90
2023-09-27T12:17:42.930Z,10.32
2023-09-27T12:20:22.303Z,8.20
2023-09-27T12:22:54.904Z,7.38
2023-09-27T12:25:21.729Z,11.18
2023-09-27T12:27:48.402Z,9.13
2023-09-27T12:30:15.089Z,6.93
2023-09-27T12:32:42.168Z,9.85
2023-09-27T12:35:09.061Z,9.32
2023-09-27T12:37:36.653Z,7.60
2023-09-27T12:40:04.936Z,11.13
2023-09-27T12:42:31.634Z,8.27
2023-09-27T12:44:58.310Z,7.63
2023-09-27T12:47:24.990Z,14.93
2023-09-27T12:49:51.929Z,8.05
2023-09-27T12:54:46.589Z,7.88
2023-09-27T12:57:13.260Z,8.50
2023-09-27T12:59:39.914Z,8.25
2023-09-27T13:02:07.662Z,9.82
2023-09-27T13:04:35.850Z,6.95
2023-09-27T13:07:02.506Z,9.70
2023-09-27T13:09:29.072Z,7.30
2023-09-27T13:11:56.386Z,5.82
2023-09-27T13:14:23.062Z,7.00
2023-09-27T13:16:49.765Z,7.38
2023-09-27T13:19:16.508Z,7.75
2023-09-27T13:21:43.114Z,7.30
2023-09-27T13:24:09.791Z,11.77
2023-09-27T13:26:37.586Z,8.07
2023-09-27T13:29:04.339Z,7.80
2023-09-27T13:31:34.776Z,8.27
2023-09-27T13:34:10.154Z,10.55
2023-09-27T13:36:40.386Z,7.95
2023-09-27T13:39:07.485Z,10.75
2023-09-27T13:41:44.615Z,11.48
2023-09-27T13:44:13.387Z,6.93
2023-09-27T13:46:40.287Z,7.68
2023-09-27T13:49:07.390Z,7.47
2023-09-27T13:51:37.147Z,7.38
2023-09-27T13:54:08.123Z,9.73
2023-09-27T13:56:35.557Z,11.13
2023-09-27T13:59:02.175Z,7.50
2023-09-27T14:01:29.631Z,6.80
2023-09-27T14:03:56.885Z,7.45
2023-09-27T14:06:23.545Z,7.70
2023-09-27T14:08:50.205Z,6.35
2023-09-27T14:11:17.847Z,6.10
2023-09-27T14:13:46.419Z,6.40
2023-09-27T14:16:13.578Z,7.57
2023-09-27T14:18:40.667Z,8.30
2023-09-27T14:21:08.282Z,5.95
2023-09-27T14:23:36.539Z,5.65
2023-09-27T14:26:03.725Z,5.68
2023-09-27T14:28:30.668Z,9.40
2023-09-27T14:33:24.618Z,6.63
2023-09-27T14:35:53.215Z,4.97
2023-09-27T14:38:20.228Z,6.63
2023-09-27T14:40:47.031Z,6.47
2023-09-27T14:43:14.868Z,7.25
2023-09-27T14:45:41.709Z,8.60
2023-09-27T14:48:09.833Z,6.93
2023-09-27T14:50:36.563Z,7.70
2023-09-27T14:53:03.348Z,8.35
2023-09-27T14:55:30.053Z,6.85
2023-09-27T14:57:57.613Z,8.05
2023-09-27T15:00:24.369Z,8.63
2023-09-27T15:02:51.591Z,6.90
2023-09-27T15:05:18.380Z,6.88
2023-09-27T15:07:45.065Z,7.65
2023-09-27T15:10:11.786Z,8.93
2023-09-27T15:12:38.887Z,7.22
2023-09-27T15:15:09.765Z,7.18
2023-09-27T15:17:44.591Z,9.05
2023-09-27T15:20:13.521Z,8.05
2023-09-27T15:22:40.331Z,8.65
2023-09-27T15:27:34.505Z,10.25
2023-09-27T15:30:01.351Z,9.82
2023-09-27T15:34:54.664Z,5.43
2023-09-27T15:37:21.227Z,7.50
2023-09-27T15:39:47.800Z,6.30
2023-09-27T15:42:15.256Z,7.68
2023-09-27T15:44:42.097Z,8.18
2023-09-27T15:47:12.627Z,6.53
2023-09-27T15:49:39.562Z,7.15
2023-09-27T15:54:34.196Z,6.57
2023-09-27T15:57:00.849Z,7.85
2023-09-27T15:59:27.795Z,6.07
2023-09-27T16:01:57.461Z,8.02
2023-09-27T16:04:26.094Z,52.97
2023-09-27T16:06:52.985Z,214.25
2023-09-27T16:09:19.623Z,190.93
2023-09-27T16:11:46.493Z,129.55
2023-09-27T16:14:13.306Z,72.43
2023-09-27T16:16:40.040Z,37.08
2023-09-27T16:19:07.111Z,26.50
2023-09-27T16:21:33.883Z,35.22
2023-09-27T16:24:01.717Z,18.10
2023-09-27T16:26:28.615Z,17.60
2023-09-27T16:28:55.303Z,17.88
2023-09-27T16:31:22.610Z,15.10
2023-09-27T16:33:49.407Z,13.75
2023-09-27T16:36:17.796Z,11.45
2023-09-27T16:38:45.041Z,10.98
2023-09-27T16:41:11.604Z,11.57
2023-09-27T16:43:40.694Z,10.48
2023-09-27T16:46:08.469Z,10.25
2023-09-27T16:48:36.244Z,10.38
2023-09-27T16:51:03.342Z,9.70
2023-09-27T16:53:30.350Z,10.20
2023-09-27T16:58:26.541Z,8.52
2023-09-27T17:00:53.553Z,6.50
2023-09-27T17:05:49.730Z,14.55
2023-09-27T17:08:17.364Z,45.10
2023-09-27T17:10:44.826Z,21.15
2023-09-27T17:13:11.869Z,12.57
2023-09-27T17:18:05.532Z,9.77
2023-09-27T17:20:32.136Z,11.02
2023-09-27T17:22:58.798Z,10.82
2023-09-27T17:25:25.929Z,9.30
2023-09-27T17:30:20.514Z,9.75
2023-09-27T17:32:47.210Z,9.90
2023-09-27T17:35:13.891Z,8.70
2023-09-27T17:37:40.629Z,9.50
2023-09-27T17:40:09.203Z,51.92
2023-09-27T17:42:39.545Z,65.25
2023-09-27T17:45:07.938Z,68.00
2023-09-27T17:47:35.011Z,60.83
2023-09-27T17:50:02.146Z,53.60
2023-09-27T17:54:55.327Z,64.15
2023-09-27T17:57:22.109Z,50.85
2023-09-27T17:59:48.675Z,46.97
2023-09-27T18:02:16.440Z,33.10
2023-09-27T18:04:43.005Z,28.70
2023-09-27T18:07:09.718Z,21.17
2023-09-27T18:09:37.089Z,21.48
2023-09-27T18:12:05.561Z,16.20
2023-09-27T18:14:32.198Z,18.23
2023-09-27T18:16:59.009Z,11.00
2023-09-27T18:19:25.938Z,13.32
2023-09-27T18:21:52.797Z,13.00
2023-09-27T18:24:19.406Z,12.75
2023-09-27T18:26:46.041Z,11.57
2023-09-27T18:29:12.669Z,12.55
2023-09-27T18:31:40.245Z,12.85
2023-09-27T18:34:07.091Z,12.90
2023-09-27T18:36:34.700Z,11.73
2023-09-27T18:39:01.534Z,16.33
2023-09-27T18:41:28.510Z,10.90
2023-09-27T18:46:23.910Z,10.73
2023-09-27T18:48:51.850Z,11.70
2023-09-27T18:51:23.126Z,11.75
2023-09-27T18:53:50.684Z,10.15
2023-09-27T18:56:20.804Z,11.23
2023-09-27T18:58:50.638Z,10.82
2023-09-27T19:01:17.495Z,12.23
2023-09-27T19:03:45.479Z,9.52
2023-09-27T19:06:15.535Z,10.23
2023-09-27T19:08:42.603Z,11.52
2023-09-27T19:11:09.547Z,10.70
2023-09-27T19:13:37.626Z,12.80
2023-09-27T19:16:08.637Z,15.00
2023-09-27T19:18:36.019Z,12.23
2023-09-27T19:21:02.618Z,13.93
2023-09-27T19:23:29.248Z,12.20
2023-09-27T19:25:55.883Z,13.30
2023-09-27T19:28:22.955Z,11.73
2023-09-27T19:30:50.586Z,11.55
2023-09-27T19:33:17.909Z,12.98
2023-09-27T19:35:45.822Z,13.27
2023-09-27T19:38:13.092Z,13.85
2023-09-27T19:40:39.923Z,12.13
2023-09-27T19:43:06.661Z,13.75
2023-09-27T19:45:34.017Z,12.20
2023-09-27T19:48:01.697Z,12.10
2023-09-27T19:50:28.253Z,11.25
2023-09-27T19:52:54.933Z,12.50
2023-09-27T19:55:21.807Z,11.73
2023-09-27T19:57:48.900Z,13.02
2023-09-27T20:00:18.497Z,15.27
2023-09-27T20:02:46.684Z,12.43
2023-09-27T20:05:13.413Z,17.42
2023-09-27T20:07:41.272Z,18.38
2023-09-27T20:10:08.655Z,18.90
2023-09-27T20:12:35.430Z,16.85
2023-09-27T20:15:02.088Z,16.30
2023-09-27T20:17:28.745Z,14.35
2023-09-27T20:19:55.653Z,16.38
2023-09-27T20:22:22.420Z,13.50
2023-09-27T20:24:49.103Z,12.43
2023-09-27T20:27:16.338Z,17.23
2023-09-27T20:29:43.223Z,11.63
2023-09-27T20:32:09.870Z,14.57
2023-09-27T20:34:36.997Z,11.13
2023-09-27T20:37:03.615Z,11.10
2023-09-27T20:39:30.185Z,11.18
2023-09-27T20:41:58.000Z,11.40
2023-09-27T20:44:25.344Z,11.07
2023-09-27T20:46:52.384Z,11.32
2023-09-27T20:51:45.574Z,10.57
2023-09-27T20:54:12.324Z,10.90
2023-09-27T20:56:39.355Z,10.10
2023-09-27T21:01:39.774Z,9.50
2023-09-27T21:04:06.994Z,12.90
2023-09-27T21:09:02.498Z,14.65
2023-09-27T21:11:29.615Z,12.80
2023-09-27T21:16:27.766Z,10.52
2023-09-27T21:18:55.841Z,11.00
2023-09-27T21:21:23.759Z,9.77
2023-09-27T21:23:51.335Z,10.82
2023-09-27T21:26:18.165Z,12.90
2023-09-27T21:28:44.906Z,10.45
2023-09-27T21:31:14.788Z,12.55
2023-09-27T21:33:43.147Z,10.35
2023-09-27T21:36:09.911Z,10.50
2023-09-27T21:38:37.135Z,10.00
2023-09-27T21:41:04.565Z,10.10
2023-09-27T21:43:33.374Z,13.80
2023-09-27T21:46:00.364Z,11.20
2023-09-27T21:48:27.209Z,9.63
2023-09-27T21:50:53.786Z,13.05
2023-09-27T21:53:20.404Z,10.02
2023-09-27T21:55:47.070Z,12.50
2023-09-27T21:58:13.851Z,17.15
2023-09-27T22:00:40.461Z,9.93
2023-09-27T22:03:07.317Z,10.93
2023-09-27T22:08:01.540Z,10.73
2023-09-27T22:10:35.751Z,11.25
2023-09-27T22:13:22.175Z,11.13
2023-09-27T22:15:55.871Z,9.82
2023-09-27T22:18:23.612Z,10.73
2023-09-27T22:20:50.583Z,10.55
2023-09-27T22:23:40.479Z,10.18
2023-09-27T22:26:17.055Z,10.98
2023-09-27T22:28:49.459Z,10.02
2023-09-27T22:31:32.158Z,10.10
2023-09-27T22:34:11.047Z,11.45
2023-09-27T22:36:39.369Z,11.93
2023-09-27T22:39:12.178Z,12.65
2023-09-27T22:41:41.681Z,12.48
2023-09-27T22:44:21.772Z,12.70
2023-09-27T22:46:55.603Z,12.05
2023-09-27T22:49:24.302Z,11.65
2023-09-27T22:51:51.202Z,13.02
2023-09-27T22:54:20.138Z,10.63
2023-09-27T22:56:48.950Z,11.80
2023-09-27T22:59:16.151Z,11.70
2023-09-27T23:01:44.966Z,13.70
2023-09-27T23:04:16.259Z,12.63
2023-09-27T23:06:47.860Z,11.82
2023-09-27T23:09:22.141Z,11.95
2023-09-27T23:11:50.479Z,12.73
2023-09-27T23:14:22.969Z,12.95
2023-09-27T23:16:51.022Z,14.27
2023-09-27T23:19:18.973Z,16.42
2023-09-27T23:21:49.230Z,11.15
2023-09-27T23:24:21.690Z,11.65
2023-09-27T23:27:00.348Z,13.95
2023-09-27T23:29:30.424Z,12.77
2023-09-27T23:32:15.394Z,13.32
2023-09-27T23:34:42.155Z,11.55
2023-09-27T23:37:17.084Z,11.40
2023-09-27T23:39:50.033Z,11.43
2023-09-27T23:42:23.961Z,11.55
2023-09-27T23:45:09.732Z,13.55
2023-09-27T23:47:51.012Z,13.82
2023-09-27T23:50:18.392Z,12.10
2023-09-27T23:52:47.303Z,14.18
2023-09-27T23:55:15.799Z,12.75
2023-09-27T23:57:47.638Z,14.07
